dimanche 13 avril 2014

ALERTE SPOTTING 13/04/14

744 EC-KQC Pullmantur Air
   PLM6121/PLM710P  08h04/10h50

744 CN-RGA RAM
   dpt  AT749  10h50
AT740/AT645   18h10/20h00 

330  F-GZCO Air France
   arv  AF370Y  08h25

320 F-GHQE Air Corsica (blanc avec titre)
   XK4501/XK757  07h35/08h25ct
 XK756/XK4512   12h30/ 13h35

IL9 CU-T1250 Cubana
  CU444/CU445   12h57/15h05

32A EC-LVP Vueling (couleur Linking Europe)
   VY1466/VY1467 14h35/15h15


Manque les prévisions/immats de certains BE / IB / AZ / TP / TU / BA / AH / KM
*** Heures en Local Time **
Prévisions matinales soumises à modifications de dernières minute. Voir le log du mois pour la version 'définitive' de la journée: http://www.airkalo.com/ORLYAVIATION/Logdumois.html

le TAF de la journée:



METAR: LFPO 130230Z 30004KT CAVOK 09/04 Q1021 NOSIG=
TAF LONG: LFPO 122300Z 1300/1406 32006KT 9999 BKN025 TEMPO 1305/1310 2000
BR BKN006 BECMG 1317/1320 CAVOK=